createdAt,value
2023-05-10T00:00:02.738Z,24.22
2023-05-10T00:01:02.760Z,24.21
2023-05-10T00:02:02.836Z,24.22
2023-05-10T00:03:02.962Z,24.22
2023-05-10T00:04:03.045Z,24.21
2023-05-10T00:05:02.934Z,24.21
2023-05-10T00:06:02.940Z,24.20
2023-05-10T00:07:02.968Z,24.20
2023-05-10T00:08:02.994Z,24.20
2023-05-10T00:09:03.060Z,24.20
2023-05-10T00:10:03.053Z,24.20
2023-05-10T00:11:03.094Z,24.20
2023-05-10T00:12:03.128Z,24.20
2023-05-10T00:13:03.188Z,24.20
2023-05-10T00:14:03.192Z,24.20
2023-05-10T00:15:03.219Z,24.20
2023-05-10T00:16:03.306Z,24.20
2023-05-10T00:17:03.260Z,24.20
2023-05-10T00:18:03.364Z,24.20
2023-05-10T00:19:03.362Z,24.19
2023-05-10T00:20:03.361Z,24.19
2023-05-10T00:21:03.437Z,24.19
2023-05-10T00:22:03.444Z,24.19
2023-05-10T00:23:03.477Z,24.19
2023-05-10T00:24:03.504Z,24.19
2023-05-10T00:25:03.520Z,24.20
2023-05-10T00:26:03.574Z,24.19
2023-05-10T00:27:03.600Z,24.20
2023-05-10T00:28:03.653Z,24.19
2023-05-10T00:29:03.677Z,24.19
2023-05-10T00:30:03.666Z,24.18
2023-05-10T00:31:03.788Z,24.19
2023-05-10T00:32:03.824Z,24.19
2023-05-10T00:33:03.895Z,24.19
2023-05-10T00:34:03.843Z,24.19
2023-05-10T00:35:03.840Z,24.18
2023-05-10T00:36:03.909Z,24.18
2023-05-10T00:37:03.959Z,24.18
2023-05-10T00:38:03.970Z,24.18
2023-05-10T00:39:03.985Z,24.18
2023-05-10T00:40:04.001Z,24.18
2023-05-10T00:41:04.053Z,24.17
2023-05-10T00:42:04.065Z,24.18
2023-05-10T00:43:04.110Z,24.18
2023-05-10T00:44:04.167Z,24.18
2023-05-10T00:45:04.200Z,24.18
2023-05-10T00:46:04.272Z,24.17
2023-05-10T00:47:04.285Z,24.18
2023-05-10T00:48:04.355Z,24.17
2023-05-10T00:49:04.311Z,24.18
2023-05-10T00:50:04.464Z,24.17
2023-05-10T00:51:04.385Z,24.17
2023-05-10T00:52:04.436Z,24.17
2023-05-10T00:53:04.422Z,24.17
2023-05-10T00:54:04.466Z,24.17
2023-05-10T00:55:04.503Z,24.17
2023-05-10T00:56:05.525Z,24.16
2023-05-10T00:57:04.685Z,24.16
2023-05-10T00:58:04.630Z,24.17
2023-05-10T00:59:04.667Z,24.16
2023-05-10T01:00:04.700Z,24.16
2023-05-10T01:01:04.722Z,24.16
2023-05-10T01:02:04.794Z,24.17
2023-05-10T01:03:04.905Z,24.16
2023-05-10T01:04:04.809Z,24.16
2023-05-10T01:05:04.965Z,24.16
2023-05-10T01:06:04.908Z,24.16
2023-05-10T01:07:04.948Z,24.16
2023-05-10T01:08:04.986Z,24.16
2023-05-10T01:09:05.007Z,24.16
2023-05-10T01:10:05.046Z,24.16
2023-05-10T01:11:05.068Z,24.16
2023-05-10T01:12:05.148Z,24.16
2023-05-10T01:13:05.202Z,24.15
2023-05-10T01:14:05.245Z,24.16
2023-05-10T01:15:05.234Z,24.15
2023-05-10T01:16:05.334Z,24.15
2023-05-10T01:17:05.376Z,24.15
2023-05-10T01:18:05.414Z,24.14
2023-05-10T01:28:19.958Z,23.94
2023-05-10T01:29:18.227Z,24.01
2023-05-10T01:30:18.217Z,24.05
2023-05-10T01:31:18.242Z,24.07
2023-05-10T01:32:18.200Z,24.08
2023-05-10T01:33:18.206Z,24.08
2023-05-10T01:34:18.483Z,24.10
2023-05-10T01:35:18.184Z,24.10
2023-05-10T01:36:18.161Z,24.10
2023-05-10T01:37:18.174Z,24.11
2023-05-10T01:38:18.188Z,24.11
2023-05-10T01:39:18.162Z,24.11
2023-05-10T01:40:18.212Z,24.10
2023-05-10T01:41:18.144Z,24.11
2023-05-10T01:42:18.137Z,24.11
2023-05-10T01:43:18.156Z,24.11
2023-05-10T01:44:18.221Z,24.12
2023-05-10T01:45:18.270Z,24.11
2023-05-10T01:46:18.293Z,24.11
2023-05-10T01:47:18.306Z,24.12
2023-05-10T01:48:18.345Z,24.10
2023-05-10T01:49:18.415Z,24.10
2023-05-10T01:50:18.641Z,24.11
2023-05-10T01:51:18.456Z,24.11
2023-05-10T01:52:18.479Z,24.10
2023-05-10T01:53:18.517Z,24.11
2023-05-10T01:54:18.555Z,24.10
2023-05-10T01:55:18.639Z,24.11
2023-05-10T01:56:18.634Z,24.11
2023-05-10T01:57:18.666Z,24.11
2023-05-10T01:58:18.731Z,24.10
2023-05-10T01:59:18.797Z,24.10
2023-05-10T02:00:19.025Z,24.10
2023-05-10T02:01:18.878Z,24.09
2023-05-10T02:02:18.910Z,24.09
2023-05-10T02:03:18.929Z,24.10
2023-05-10T02:04:18.971Z,24.10
2023-05-10T02:05:19.026Z,24.10
2023-05-10T02:06:19.088Z,24.10
2023-05-10T02:07:19.089Z,24.10
2023-05-10T02:08:19.163Z,24.10
2023-05-10T02:09:19.430Z,24.09
2023-05-10T02:10:19.259Z,24.10
2023-05-10T02:11:19.233Z,24.09
2023-05-10T02:12:19.290Z,24.09
2023-05-10T02:13:19.384Z,24.09
2023-05-10T02:14:19.365Z,24.09
2023-05-10T02:15:19.446Z,24.09
2023-05-10T02:16:19.527Z,24.09
2023-05-10T02:17:19.482Z,24.09
2023-05-10T02:18:19.554Z,24.09
2023-05-10T02:19:19.610Z,24.09
2023-05-10T02:20:19.771Z,24.09
2023-05-10T02:21:19.702Z,24.08
2023-05-10T02:22:19.722Z,24.09
2023-05-10T02:23:19.724Z,24.09
2023-05-10T02:24:19.767Z,24.09
2023-05-10T02:25:19.829Z,24.09
2023-05-10T02:26:19.870Z,24.09
2023-05-10T02:27:19.915Z,24.10
2023-05-10T02:28:19.944Z,24.08
2023-05-10T02:29:20.471Z,24.08
2023-05-10T02:30:20.041Z,24.08
2023-05-10T02:31:20.168Z,24.08
2023-05-10T02:32:20.220Z,24.08
2023-05-10T02:33:20.200Z,24.09
2023-05-10T02:34:20.240Z,24.09
2023-05-10T02:35:20.284Z,24.08
2023-05-10T02:36:20.303Z,24.08
2023-05-10T02:37:20.357Z,24.08
2023-05-10T02:38:20.400Z,24.08
2023-05-10T02:39:20.461Z,24.08
2023-05-10T02:40:20.480Z,24.08
2023-05-10T02:41:20.532Z,24.07
2023-05-10T02:42:20.562Z,24.07
2023-05-10T02:43:20.578Z,24.08
2023-05-10T02:44:20.634Z,24.07
2023-05-10T02:45:20.673Z,24.07
2023-05-10T02:46:20.795Z,24.08
2023-05-10T02:47:20.771Z,24.07
2023-05-10T02:48:20.794Z,24.07
2023-05-10T02:49:20.859Z,24.07
2023-05-10T02:50:20.861Z,24.07
2023-05-10T02:51:20.922Z,24.08
2023-05-10T02:52:20.959Z,24.07
2023-05-10T02:53:21.113Z,24.07
2023-05-10T02:54:21.087Z,24.07
2023-05-10T02:55:21.104Z,24.07
2023-05-10T02:56:21.143Z,24.07
2023-05-10T02:57:21.211Z,24.07
2023-05-10T02:58:21.229Z,24.07
2023-05-10T02:59:21.291Z,24.07
2023-05-10T03:00:21.357Z,24.07
2023-05-10T03:01:21.429Z,24.07
2023-05-10T03:02:21.427Z,24.07
2023-05-10T03:03:21.464Z,24.06
2023-05-10T03:04:21.552Z,24.07
2023-05-10T03:05:21.539Z,24.06
2023-05-10T03:06:21.580Z,24.07
2023-05-10T03:07:21.634Z,24.06
2023-05-10T03:08:21.661Z,24.06
2023-05-10T03:09:21.704Z,24.06
2023-05-10T03:10:21.735Z,24.06
2023-05-10T03:11:21.772Z,24.05
2023-05-10T03:12:21.814Z,24.05
2023-05-10T03:13:21.967Z,24.05
2023-05-10T03:14:21.943Z,24.05
2023-05-10T03:15:21.986Z,24.05
2023-05-10T03:16:21.998Z,24.06
2023-05-10T03:17:22.027Z,24.05
2023-05-10T03:18:22.087Z,24.05
2023-05-10T03:19:22.171Z,24.05
2023-05-10T03:20:22.144Z,24.05
2023-05-10T03:21:22.244Z,24.05
2023-05-10T03:22:22.285Z,24.04
2023-05-10T03:23:22.280Z,24.05
2023-05-10T03:24:22.347Z,24.05
2023-05-10T03:25:22.366Z,24.05
2023-05-10T03:26:22.388Z,24.05
2023-05-10T03:27:22.434Z,24.05
2023-05-10T03:28:22.502Z,24.05
2023-05-10T03:29:22.581Z,24.05
2023-05-10T03:30:22.592Z,24.04
2023-05-10T03:31:22.711Z,24.04
2023-05-10T03:32:22.705Z,24.04
2023-05-10T03:33:22.707Z,24.05
2023-05-10T03:34:22.778Z,24.05
2023-05-10T03:35:22.802Z,24.04
2023-05-10T03:36:22.804Z,24.04
2023-05-10T03:37:22.885Z,24.04
2023-05-10T03:38:22.903Z,24.04
2023-05-10T03:39:22.961Z,24.04
2023-05-10T03:40:22.987Z,24.04
2023-05-10T03:41:23.069Z,24.04
2023-05-10T03:42:23.120Z,24.04
2023-05-10T03:43:23.141Z,24.04
2023-05-10T03:44:23.207Z,24.04
2023-05-10T03:45:23.249Z,24.04
2023-05-10T03:46:23.342Z,24.04
2023-05-10T03:47:23.404Z,24.04
2023-05-10T03:48:23.384Z,24.04
2023-05-10T03:49:23.450Z,24.04
2023-05-10T03:50:23.440Z,24.03
2023-05-10T03:51:23.490Z,24.03
2023-05-10T03:52:23.552Z,24.03
2023-05-10T03:53:23.587Z,24.03
2023-05-10T03:54:23.656Z,24.03
2023-05-10T03:55:23.666Z,24.03
2023-05-10T03:56:23.719Z,24.02
2023-05-10T03:57:23.763Z,24.03
2023-05-10T03:58:23.845Z,24.03
2023-05-10T03:59:23.960Z,24.03
2023-05-10T04:00:23.928Z,24.03
2023-05-10T04:01:24.017Z,24.03
2023-05-10T04:02:24.180Z,24.03
2023-05-10T04:03:24.135Z,24.03
2023-05-10T04:04:24.128Z,24.03
2023-05-10T04:05:24.153Z,24.03
2023-05-10T04:06:24.225Z,24.03
2023-05-10T04:07:24.270Z,24.02
2023-05-10T04:08:24.290Z,24.02
2023-05-10T04:09:24.504Z,24.02
2023-05-10T04:10:24.422Z,24.02
2023-05-10T04:11:24.447Z,24.02
2023-05-10T04:12:24.491Z,24.01
2023-05-10T04:13:24.597Z,24.01
2023-05-10T04:14:24.589Z,24.01
2023-05-10T04:15:24.616Z,24.01
2023-05-10T04:16:24.709Z,24.02
2023-05-10T04:17:24.789Z,24.02
2023-05-10T04:18:24.794Z,24.02
2023-05-10T04:19:24.831Z,24.01
2023-05-10T04:20:24.857Z,24.02
2023-05-10T04:21:24.920Z,24.01
2023-05-10T04:22:24.981Z,24.01
2023-05-10T04:23:25.009Z,24.00
2023-05-10T04:24:25.134Z,24.02
2023-05-10T04:25:25.088Z,24.01
2023-05-10T04:26:25.138Z,24.01
2023-05-10T04:27:25.182Z,24.01
2023-05-10T04:28:25.235Z,24.01
2023-05-10T04:29:25.352Z,24.00
2023-05-10T04:30:25.349Z,24.01
2023-05-10T04:31:25.419Z,24.01
2023-05-10T04:32:25.460Z,24.00
2023-05-10T04:33:25.476Z,24.00
2023-05-10T04:34:25.514Z,24.00
2023-05-10T04:35:25.567Z,24.00
2023-05-10T04:36:25.614Z,24.01
2023-05-10T04:37:25.667Z,24.00
2023-05-10T04:38:25.698Z,24.00
2023-05-10T04:39:25.772Z,24.00
2023-05-10T04:40:26.157Z,24.01
2023-05-10T04:41:25.832Z,24.00
2023-05-10T04:42:25.862Z,24.00
2023-05-10T04:43:26.092Z,24.00
2023-05-10T04:44:25.985Z,24.00
2023-05-10T04:45:26.008Z,24.01
2023-05-10T04:46:26.129Z,24.01
2023-05-10T04:47:26.114Z,24.00
2023-05-10T04:48:26.179Z,24.01
2023-05-10T04:49:26.191Z,24.00
2023-05-10T04:50:26.279Z,24.00
2023-05-10T04:51:26.293Z,24.00
2023-05-10T04:52:26.315Z,24.00
2023-05-10T04:53:26.394Z,24.00
2023-05-10T04:54:26.433Z,24.00
2023-05-10T04:55:26.478Z,23.99
2023-05-10T04:56:26.501Z,23.99
2023-05-10T04:57:26.623Z,24.00
2023-05-10T04:58:26.618Z,23.99
2023-05-10T04:59:26.655Z,23.99
2023-05-10T05:00:26.724Z,23.99
2023-05-10T05:01:26.857Z,23.99
2023-05-10T05:02:26.864Z,23.99
2023-05-10T05:03:26.928Z,23.99
2023-05-10T05:04:26.903Z,23.99
2023-05-10T05:05:26.924Z,23.99
2023-05-10T05:06:26.977Z,23.98
2023-05-10T05:07:27.028Z,23.98
2023-05-10T05:08:27.101Z,23.98
2023-05-10T05:09:27.174Z,23.98
2023-05-10T05:10:27.171Z,23.98
2023-05-10T05:11:27.240Z,23.99
2023-05-10T05:12:27.276Z,23.99
2023-05-10T05:13:27.444Z,23.99
2023-05-10T05:14:27.395Z,23.99
2023-05-10T05:15:27.384Z,23.98
2023-05-10T05:16:27.503Z,23.99
2023-05-10T05:17:27.522Z,23.99
2023-05-10T05:18:27.504Z,23.97
2023-05-10T05:19:27.556Z,23.99
2023-05-10T05:20:27.627Z,23.99
2023-05-10T05:21:27.675Z,23.98
2023-05-10T05:22:27.697Z,23.98
2023-05-10T05:23:27.740Z,23.98
2023-05-10T05:24:27.795Z,23.98
2023-05-10T05:25:27.837Z,23.98
2023-05-10T05:26:27.851Z,23.98
2023-05-10T05:27:27.914Z,23.98
2023-05-10T05:28:27.939Z,23.98
2023-05-10T05:29:28.079Z,23.98
2023-05-10T05:30:28.044Z,23.98
2023-05-10T05:31:28.215Z,23.99
2023-05-10T05:32:28.142Z,24.01
2023-05-10T05:33:28.161Z,24.01
2023-05-10T05:34:28.250Z,24.02
2023-05-10T05:35:28.320Z,24.03
2023-05-10T05:36:28.329Z,24.04
2023-05-10T05:37:28.353Z,24.06
2023-05-10T05:38:28.460Z,24.08
2023-05-10T05:39:28.499Z,24.10
2023-05-10T05:40:28.479Z,24.13
2023-05-10T05:41:28.524Z,24.16
2023-05-10T05:42:28.553Z,24.19
2023-05-10T05:43:28.681Z,24.21
2023-05-10T05:44:28.654Z,24.22
2023-05-10T05:45:28.666Z,24.21
2023-05-10T05:46:28.734Z,24.21
2023-05-10T05:47:28.752Z,24.20
2023-05-10T05:48:28.789Z,24.20
2023-05-10T05:49:28.796Z,24.19
2023-05-10T05:50:28.901Z,24.18
2023-05-10T05:51:28.927Z,24.17
2023-05-10T05:52:28.900Z,24.16
2023-05-10T05:53:28.963Z,24.16
2023-05-10T05:54:28.978Z,24.14
2023-05-10T05:55:29.051Z,24.14
2023-05-10T05:56:29.041Z,24.13
2023-05-10T05:57:29.148Z,24.12
2023-05-10T05:58:29.236Z,24.11
2023-05-10T05:59:29.243Z,24.10
2023-05-10T06:00:29.333Z,24.10
2023-05-10T06:01:29.289Z,24.08
2023-05-10T06:02:29.324Z,24.09
2023-05-10T06:03:29.503Z,24.08
2023-05-10T06:04:29.692Z,24.08
2023-05-10T06:05:29.546Z,24.07
2023-05-10T06:06:29.567Z,24.07
2023-05-10T06:07:29.577Z,24.07
2023-05-10T06:08:29.678Z,24.06
2023-05-10T06:09:29.720Z,24.06
2023-05-10T06:10:29.769Z,24.05
2023-05-10T06:11:29.828Z,24.04
2023-05-10T06:12:29.828Z,24.04
2023-05-10T06:13:29.990Z,24.04
2023-05-10T06:14:29.952Z,24.03
2023-05-10T06:15:30.000Z,24.03
2023-05-10T06:16:30.071Z,24.03
2023-05-10T06:17:30.140Z,24.02
2023-05-10T06:18:30.133Z,24.02
2023-05-10T06:19:30.171Z,24.02
2023-05-10T06:20:30.258Z,24.02
2023-05-10T06:21:30.279Z,24.02
2023-05-10T06:22:30.456Z,24.02
2023-05-10T06:23:30.395Z,24.02
2023-05-10T06:24:30.451Z,24.01
2023-05-10T06:25:30.478Z,24.01
2023-05-10T06:26:30.539Z,24.01
2023-05-10T06:27:30.585Z,24.00
2023-05-10T06:28:30.644Z,24.00
2023-05-10T06:29:30.728Z,24.00
2023-05-10T06:30:30.829Z,24.00
2023-05-10T06:31:31.527Z,24.00
2023-05-10T06:32:30.960Z,24.00
2023-05-10T06:33:30.976Z,24.00
2023-05-10T06:34:31.001Z,24.00
2023-05-10T06:35:31.045Z,23.99
2023-05-10T06:36:31.148Z,23.99
2023-05-10T06:37:31.162Z,24.00
2023-05-10T06:38:31.252Z,24.02
2023-05-10T06:39:31.532Z,24.07
2023-05-10T06:40:31.351Z,24.12
2023-05-10T06:41:31.397Z,24.18
2023-05-10T06:42:31.614Z,24.24
2023-05-10T06:43:31.522Z,24.29
2023-05-10T06:44:31.566Z,24.36
2023-05-10T06:45:31.502Z,24.41
2023-05-10T06:46:31.518Z,24.45
2023-05-10T06:47:31.634Z,24.49
2023-05-10T06:48:31.544Z,24.52
2023-05-10T06:49:31.517Z,24.55
2023-05-10T06:50:31.573Z,24.59
2023-05-10T06:51:31.506Z,24.63
2023-05-10T06:52:31.545Z,24.67
2023-05-10T06:53:31.609Z,24.69
2023-05-10T06:54:31.592Z,24.72
2023-05-10T06:55:31.600Z,24.74
2023-05-10T06:56:31.670Z,24.77
2023-05-10T06:57:32.357Z,24.81
2023-05-10T06:58:31.873Z,24.84
2023-05-10T06:59:31.949Z,24.87
2023-05-10T07:00:32.067Z,24.90
2023-05-10T07:01:31.919Z,24.91
2023-05-10T07:02:31.995Z,24.94
2023-05-10T07:03:32.061Z,24.97
2023-05-10T07:04:32.093Z,24.99
2023-05-10T07:05:32.141Z,25.01
2023-05-10T07:06:34.011Z,25.03
2023-05-10T07:07:32.251Z,25.05
2023-05-10T07:08:32.290Z,25.06
2023-05-10T07:09:32.363Z,25.08
2023-05-10T07:10:32.426Z,25.07
2023-05-10T07:11:32.467Z,25.08
2023-05-10T07:12:32.611Z,25.07
2023-05-10T07:13:32.637Z,25.07
2023-05-10T07:14:32.725Z,25.06
2023-05-10T07:15:32.713Z,25.07
2023-05-10T07:16:32.789Z,25.08
2023-05-10T07:17:32.896Z,25.08
2023-05-10T07:18:33.064Z,25.10
2023-05-10T07:19:32.964Z,25.11
2023-05-10T07:20:32.999Z,25.13
2023-05-10T07:21:33.195Z,25.16
2023-05-10T07:22:33.109Z,25.17
2023-05-10T07:23:33.163Z,25.17
2023-05-10T07:24:33.254Z,25.19
2023-05-10T07:25:33.271Z,25.22
2023-05-10T07:26:33.382Z,25.23
2023-05-10T07:27:33.355Z,25.24
2023-05-10T07:28:33.448Z,25.26
2023-05-10T07:29:33.456Z,25.27
2023-05-10T07:30:33.485Z,25.29
2023-05-10T07:31:33.532Z,25.32
2023-05-10T07:32:33.685Z,25.35
2023-05-10T07:33:33.595Z,25.36
2023-05-10T07:34:34.101Z,25.38
2023-05-10T07:35:33.606Z,25.38
2023-05-10T07:36:33.691Z,25.38
2023-05-10T07:37:33.727Z,25.39
2023-05-10T07:38:33.761Z,25.39
2023-05-10T07:39:33.765Z,25.39
2023-05-10T07:40:33.853Z,25.39
2023-05-10T07:41:35.080Z,25.40
2023-05-10T07:42:33.869Z,25.41
2023-05-10T07:43:33.920Z,25.42
2023-05-10T07:44:33.972Z,25.43
2023-05-10T07:45:34.209Z,25.45
2023-05-10T07:46:33.998Z,25.46
2023-05-10T07:47:34.144Z,25.48
2023-05-10T07:48:34.304Z,25.49
2023-05-10T07:49:34.055Z,25.49
2023-05-10T07:50:34.240Z,25.50
2023-05-10T07:51:35.049Z,25.51
2023-05-10T07:52:34.138Z,25.52
2023-05-10T07:53:34.190Z,25.54
2023-05-10T07:54:34.572Z,25.55
2023-05-10T07:55:34.170Z,25.57
2023-05-10T07:56:34.151Z,25.57
2023-05-10T07:57:34.145Z,25.58
2023-05-10T07:58:34.140Z,25.60
2023-05-10T07:59:34.239Z,25.62
2023-05-10T08:00:34.139Z,25.64
2023-05-10T08:01:34.134Z,25.66
2023-05-10T08:02:34.299Z,25.67
2023-05-10T08:03:34.235Z,25.67
2023-05-10T08:04:34.178Z,25.69
2023-05-10T08:05:35.784Z,25.70
2023-05-10T08:06:34.149Z,25.69
2023-05-10T08:07:34.123Z,25.67
2023-05-10T08:08:34.152Z,25.65
2023-05-10T08:09:34.156Z,25.63
2023-05-10T08:10:34.142Z,25.62
2023-05-10T08:11:35.021Z,25.62
2023-05-10T08:12:34.141Z,25.61
2023-05-10T08:13:34.193Z,25.62
2023-05-10T08:14:34.201Z,25.63
2023-05-10T08:15:34.193Z,25.64
2023-05-10T08:16:34.193Z,25.65
2023-05-10T08:17:34.181Z,25.66
2023-05-10T08:18:34.191Z,25.65
2023-05-10T08:19:34.142Z,25.66
2023-05-10T08:20:34.590Z,25.67
2023-05-10T08:21:34.165Z,25.67
2023-05-10T08:22:34.124Z,25.66
2023-05-10T08:23:34.120Z,25.66
2023-05-10T08:24:34.136Z,25.68
2023-05-10T08:25:34.209Z,25.69
2023-05-10T08:26:34.149Z,25.70
2023-05-10T08:27:34.168Z,25.70
2023-05-10T08:28:34.146Z,25.72
2023-05-10T08:29:46.302Z,25.73
2023-05-10T08:30:35.244Z,25.73
2023-05-10T08:31:34.155Z,25.72
2023-05-10T08:32:34.160Z,25.70
2023-05-10T08:33:34.137Z,25.69
2023-05-10T08:34:34.104Z,25.69
2023-05-10T08:35:34.189Z,25.69
2023-05-10T08:36:34.117Z,25.69
2023-05-10T08:37:34.100Z,25.69
2023-05-10T08:38:34.093Z,25.68
2023-05-10T08:39:34.112Z,25.70
2023-05-10T08:40:34.071Z,25.71
2023-05-10T08:41:34.060Z,25.70
2023-05-10T08:42:34.113Z,25.69
2023-05-10T08:43:34.088Z,25.70
2023-05-10T08:44:34.067Z,25.70
2023-05-10T08:45:34.136Z,25.70
2023-05-10T08:46:34.104Z,25.72
2023-05-10T08:47:34.066Z,25.73
2023-05-10T08:48:34.026Z,25.75
2023-05-10T08:49:34.123Z,25.76
2023-05-10T08:50:34.083Z,25.77
2023-05-10T08:51:33.997Z,25.78
2023-05-10T08:52:33.992Z,25.80
2023-05-10T08:53:34.641Z,25.81
2023-05-10T08:54:34.010Z,25.82
2023-05-10T08:55:33.992Z,25.83
2023-05-10T08:56:33.967Z,25.85
2023-05-10T08:57:33.991Z,25.87
2023-05-10T08:58:33.955Z,25.88
2023-05-10T08:59:33.991Z,25.90
2023-05-10T09:00:33.994Z,25.91
2023-05-10T09:01:33.940Z,25.93
2023-05-10T09:02:33.940Z,25.94
2023-05-10T09:03:33.974Z,25.94
2023-05-10T09:04:34.079Z,25.96
2023-05-10T09:05:34.056Z,25.98
2023-05-10T09:06:34.117Z,26.00
2023-05-10T09:07:35.269Z,26.01
2023-05-10T09:08:34.211Z,26.02
2023-05-10T09:09:34.281Z,26.02
2023-05-10T09:10:34.336Z,26.04
2023-05-10T09:11:34.408Z,26.06
2023-05-10T09:12:34.486Z,26.07
2023-05-10T09:13:34.501Z,26.09
2023-05-10T09:14:34.570Z,26.10
2023-05-10T09:15:34.711Z,26.11
2023-05-10T09:16:34.727Z,26.12
2023-05-10T09:17:34.794Z,26.13
2023-05-10T09:18:34.850Z,26.14
2023-05-10T09:19:34.864Z,26.15
2023-05-10T09:20:34.952Z,26.17
2023-05-10T09:21:35.016Z,26.17
2023-05-10T09:22:35.071Z,26.19
2023-05-10T09:23:35.104Z,26.21
2023-05-10T09:24:35.114Z,26.21
2023-05-10T09:25:35.145Z,26.21
2023-05-10T09:26:35.201Z,26.22
2023-05-10T09:27:35.239Z,26.23
2023-05-10T09:28:35.274Z,26.22
2023-05-10T09:29:35.330Z,26.22
2023-05-10T09:30:35.456Z,26.22
2023-05-10T09:31:35.405Z,26.23
2023-05-10T09:32:35.480Z,26.22
2023-05-10T09:33:35.513Z,26.20
2023-05-10T09:34:37.123Z,26.10
2023-05-10T09:35:35.627Z,25.94
2023-05-10T09:36:35.632Z,25.80
2023-05-10T09:37:35.670Z,25.70
2023-05-10T09:38:35.731Z,25.65
2023-05-10T09:39:35.798Z,25.64
2023-05-10T09:40:35.836Z,25.62
2023-05-10T09:41:35.844Z,25.60
2023-05-10T09:42:35.919Z,25.57
2023-05-10T09:43:35.937Z,25.54
2023-05-10T09:44:35.994Z,25.53
2023-05-10T09:45:38.275Z,25.51
2023-05-10T09:46:36.115Z,25.50
2023-05-10T09:47:36.125Z,25.50
2023-05-10T09:48:36.033Z,25.50
2023-05-10T09:49:36.019Z,25.53
2023-05-10T09:50:36.169Z,25.55
2023-05-10T09:51:36.942Z,25.57
2023-05-10T09:52:35.978Z,25.59
2023-05-10T09:53:35.967Z,25.58
2023-05-10T09:54:35.994Z,25.57
2023-05-10T09:55:35.998Z,25.55
2023-05-10T09:56:35.960Z,25.55
2023-05-10T09:57:35.939Z,25.54
2023-05-10T09:58:35.948Z,25.52
2023-05-10T09:59:35.985Z,25.50
2023-05-10T10:00:35.930Z,25.48
2023-05-10T10:01:36.108Z,25.44
2023-05-10T10:02:35.978Z,25.40
2023-05-10T10:03:35.915Z,25.38
2023-05-10T10:04:35.911Z,25.36
2023-05-10T10:05:35.891Z,25.33
2023-05-10T10:06:35.888Z,25.31
2023-05-10T10:07:35.913Z,25.29
2023-05-10T10:08:35.884Z,25.29
2023-05-10T10:09:35.907Z,25.28
2023-05-10T10:10:36.126Z,25.28
2023-05-10T10:11:35.858Z,25.26
2023-05-10T10:12:35.836Z,25.27
2023-05-10T10:13:35.842Z,25.28
2023-05-10T10:14:35.827Z,25.29
2023-05-10T10:15:35.932Z,25.31
2023-05-10T10:16:35.853Z,25.31
2023-05-10T10:17:35.876Z,25.32
2023-05-10T10:18:35.821Z,25.32
2023-05-10T10:19:35.873Z,25.33
2023-05-10T10:20:35.803Z,25.32
2023-05-10T10:21:35.879Z,25.31
2023-05-10T10:22:35.910Z,25.31
2023-05-10T10:23:35.983Z,25.29
2023-05-10T10:24:36.000Z,25.30
2023-05-10T10:25:36.057Z,25.30
2023-05-10T10:26:36.160Z,25.32
2023-05-10T10:27:36.141Z,25.33
2023-05-10T10:28:36.203Z,25.34
2023-05-10T10:29:36.254Z,25.33
2023-05-10T10:30:36.310Z,25.32
2023-05-10T10:31:36.388Z,25.33
2023-05-10T10:32:36.429Z,25.34
2023-05-10T10:33:36.429Z,25.32
2023-05-10T10:34:36.533Z,25.31
2023-05-10T10:35:36.543Z,25.27
2023-05-10T10:36:36.550Z,25.24
2023-05-10T10:37:36.621Z,25.22
2023-05-10T10:38:36.662Z,25.18
2023-05-10T10:39:36.732Z,25.17
2023-05-10T10:40:36.869Z,25.16
2023-05-10T10:41:36.860Z,25.16
2023-05-10T10:42:36.894Z,25.15
2023-05-10T10:43:36.955Z,25.14
2023-05-10T10:44:37.058Z,25.13
2023-05-10T10:45:37.083Z,25.12
2023-05-10T10:46:37.244Z,25.12
2023-05-10T10:47:37.337Z,25.11
2023-05-10T10:48:37.270Z,25.12
2023-05-10T10:49:37.316Z,25.13
2023-05-10T10:50:37.352Z,25.12
2023-05-10T10:51:37.450Z,25.12
2023-05-10T10:52:37.457Z,25.12
2023-05-10T10:53:37.497Z,25.10
2023-05-10T10:54:37.577Z,25.08
2023-05-10T10:55:37.586Z,25.07
2023-05-10T10:56:37.757Z,25.07
2023-05-10T10:57:37.672Z,25.03
2023-05-10T10:58:37.687Z,25.01
2023-05-10T10:59:37.695Z,25.00
2023-05-10T11:00:37.881Z,24.98
2023-05-10T11:01:37.796Z,24.97
2023-05-10T11:02:37.751Z,24.97
2023-05-10T11:03:37.715Z,24.98
2023-05-10T11:04:37.840Z,24.99
2023-05-10T11:05:37.718Z,25.01
2023-05-10T11:06:37.724Z,25.03
2023-05-10T11:07:37.753Z,25.05
2023-05-10T11:08:38.352Z,25.06
2023-05-10T11:09:37.926Z,25.09
2023-05-10T11:10:37.968Z,25.12
2023-05-10T11:11:38.026Z,25.15
2023-05-10T11:12:38.068Z,25.19
2023-05-10T11:13:38.105Z,25.24
2023-05-10T11:14:39.134Z,25.29
2023-05-10T11:15:38.178Z,25.34
2023-05-10T11:16:38.331Z,25.37
2023-05-10T11:17:39.120Z,25.40
2023-05-10T11:18:38.409Z,25.43
2023-05-10T11:19:38.355Z,25.44
2023-05-10T11:20:38.342Z,25.45
2023-05-10T11:21:38.365Z,25.46
2023-05-10T11:22:38.387Z,25.45
2023-05-10T11:23:38.456Z,25.43
2023-05-10T11:24:38.442Z,25.41
2023-05-10T11:25:38.529Z,25.39
2023-05-10T11:26:38.538Z,25.37
2023-05-10T11:27:38.580Z,25.36
2023-05-10T11:28:38.631Z,25.34
2023-05-10T11:29:38.737Z,25.31
2023-05-10T11:30:38.691Z,25.30
2023-05-10T11:31:38.738Z,25.27
2023-05-10T11:32:38.827Z,25.25
2023-05-10T11:33:38.822Z,25.23
2023-05-10T11:34:38.867Z,25.20
2023-05-10T11:35:40.436Z,25.19
2023-05-10T11:36:38.936Z,25.18
2023-05-10T11:37:38.930Z,25.16
2023-05-10T11:38:38.893Z,25.15
2023-05-10T11:39:38.888Z,25.13
2023-05-10T11:40:38.909Z,25.12
2023-05-10T11:41:39.662Z,25.11
2023-05-10T11:42:38.899Z,25.09
2023-05-10T11:43:38.869Z,25.08
2023-05-10T11:44:38.863Z,25.08
2023-05-10T11:45:38.853Z,25.07
2023-05-10T11:46:38.895Z,25.06
2023-05-10T11:47:39.975Z,25.05
2023-05-10T11:48:38.848Z,25.04
2023-05-10T11:49:38.894Z,25.03
2023-05-10T11:50:38.982Z,25.03
2023-05-10T11:51:39.252Z,25.02
2023-05-10T11:52:39.129Z,25.01
2023-05-10T11:53:39.148Z,25.00
2023-05-10T11:54:39.164Z,25.00
2023-05-10T11:55:39.198Z,24.99
2023-05-10T11:56:39.247Z,24.99
2023-05-10T11:57:39.321Z,24.98
2023-05-10T11:58:39.332Z,24.97
2023-05-10T11:59:41.165Z,24.96
2023-05-10T12:00:39.375Z,24.96
2023-05-10T12:01:39.404Z,24.95
2023-05-10T12:02:39.404Z,24.94
2023-05-10T12:03:39.455Z,24.94
2023-05-10T12:04:39.398Z,24.93
2023-05-10T12:05:41.127Z,24.93
2023-05-10T12:06:39.309Z,24.92
2023-05-10T12:07:39.310Z,24.92
2023-05-10T12:08:39.294Z,24.91
2023-05-10T12:09:43.784Z,24.90
2023-05-10T12:10:40.284Z,24.89
2023-05-10T12:11:41.100Z,24.89
2023-05-10T12:12:39.288Z,24.89
2023-05-10T12:13:39.264Z,24.88
2023-05-10T12:14:39.251Z,24.87
2023-05-10T12:15:39.235Z,24.88
2023-05-10T12:16:39.376Z,24.87
2023-05-10T12:17:41.272Z,24.87
2023-05-10T12:18:39.221Z,24.86
2023-05-10T12:19:39.292Z,24.86
2023-05-10T12:20:39.193Z,24.85
2023-05-10T12:21:39.207Z,24.85
2023-05-10T12:22:39.183Z,24.85
2023-05-10T12:23:39.189Z,24.85
2023-05-10T12:24:39.228Z,24.84
2023-05-10T12:25:39.167Z,24.84
2023-05-10T12:26:39.171Z,24.84
2023-05-10T12:27:39.161Z,24.84
2023-05-10T12:28:39.124Z,24.84
2023-05-10T12:29:40.580Z,24.82
2023-05-10T12:30:39.122Z,24.82
2023-05-10T12:31:39.150Z,24.82
2023-05-10T12:32:39.141Z,24.82
2023-05-10T12:33:39.101Z,24.83
2023-05-10T12:34:39.092Z,24.81
2023-05-10T12:35:40.744Z,24.81
2023-05-10T12:36:39.106Z,24.81
2023-05-10T12:37:39.096Z,24.80
2023-05-10T12:38:39.068Z,24.81
2023-05-10T12:39:39.090Z,24.80
2023-05-10T12:40:39.144Z,24.80
2023-05-10T12:41:40.405Z,24.80
2023-05-10T12:42:39.047Z,24.78
2023-05-10T12:43:39.048Z,24.78
2023-05-10T12:44:39.034Z,24.78
2023-05-10T12:45:39.078Z,24.76
2023-05-10T12:46:39.014Z,24.75
2023-05-10T12:47:40.806Z,24.75
2023-05-10T12:48:39.060Z,24.74
2023-05-10T12:49:39.022Z,24.74
2023-05-10T12:50:38.984Z,24.74
2023-05-10T12:51:39.002Z,24.73
2023-05-10T12:52:38.974Z,24.74
2023-05-10T12:53:39.753Z,24.74
2023-05-10T12:54:38.955Z,24.72
2023-05-10T12:55:38.971Z,24.72
2023-05-10T12:56:38.978Z,24.71
2023-05-10T12:57:38.933Z,24.71
2023-05-10T12:58:38.962Z,24.70
2023-05-10T12:59:38.934Z,24.71
2023-05-10T13:00:38.921Z,24.70
2023-05-10T13:01:39.353Z,24.69